Terminal Aerodrome Forecast
Issued by NWS

Home | Current Version | Previous Version | Text Only | Print | Product List | Glossary On
Versions: 1 2 3 4 5 6 7 8 9 10 11 12 13 14
000
FTUS44 KTSA 171100
TAFRVS
TAF
KRVS 171135Z 1712/1812 18004KT 4SM BR SCT003
      TEMPO 1712/1714 1SM BR BKN003
     FM171400 21008KT P6SM SCT250
     FM171700 21008KT P6SM SCT040
     FM180000 00000KT P6SM BKN250
     FM180900 00000KT 3SM BR SCT020=

USA.gov is the U.S. government's official web portal to all federal, state and local government web resources and services.